sensor_id;sensor_type;location;lat;lon;timestamp;P1;durP1;ratioP1;P2;durP2;ratioP2
71759;SDS011;59919;48.112;16.280;2023-07-20T00:00:36;1.58;;;1.20;;
71759;SDS011;59919;48.112;16.280;2023-07-20T00:03:11;1.38;;;1.27;;
71759;SDS011;59919;48.112;16.280;2023-07-20T00:05:47;1.40;;;1.05;;
71759;SDS011;59919;48.112;16.280;2023-07-20T00:08:18;1.88;;;1.30;;
71759;SDS011;59919;48.112;16.280;2023-07-20T00:10:49;1.60;;;1.45;;
71759;SDS011;59919;48.112;16.280;2023-07-20T00:13:21;1.38;;;1.27;;
71759;SDS011;59919;48.112;16.280;2023-07-20T00:15:52;1.90;;;1.40;;
71759;SDS011;59919;48.112;16.280;2023-07-20T00:18:23;1.08;;;0.98;;
71759;SDS011;59919;48.112;16.280;2023-07-20T00:20:57;1.40;;;1.30;;
71759;SDS011;59919;48.112;16.280;2023-07-20T00:23:30;1.88;;;1.33;;
71759;SDS011;59919;48.112;16.280;2023-07-20T00:26:04;1.67;;;1.50;;
71759;SDS011;59919;48.112;16.280;2023-07-20T00:28:35;2.13;;;1.40;;
71759;SDS011;59919;48.112;16.280;2023-07-20T00:31:07;1.42;;;1.33;;
71759;SDS011;59919;48.112;16.280;2023-07-20T00:33:41;1.70;;;1.48;;
71759;SDS011;59919;48.112;16.280;2023-07-20T00:36:14;1.52;;;1.30;;
71759;SDS011;59919;48.112;16.280;2023-07-20T00:38:46;1.40;;;1.30;;
71759;SDS011;59919;48.112;16.280;2023-07-20T00:41:17;2.15;;;1.73;;
71759;SDS011;59919;48.112;16.280;2023-07-20T00:43:51;1.40;;;1.30;;
71759;SDS011;59919;48.112;16.280;2023-07-20T00:46:23;1.23;;;1.13;;
71759;SDS011;59919;48.112;16.280;2023-07-20T00:48:55;2.83;;;1.33;;
71759;SDS011;59919;48.112;16.280;2023-07-20T00:51:27;2.33;;;1.70;;
71759;SDS011;59919;48.112;16.280;2023-07-20T00:53:58;1.48;;;1.33;;
71759;SDS011;59919;48.112;16.280;2023-07-20T00:56:29;1.65;;;1.30;;
71759;SDS011;59919;48.112;16.280;2023-07-20T00:59:01;1.63;;;1.40;;
71759;SDS011;59919;48.112;16.280;2023-07-20T01:01:32;1.65;;;1.50;;
71759;SDS011;59919;48.112;16.280;2023-07-20T01:04:03;1.40;;;1.20;;
71759;SDS011;59919;48.112;16.280;2023-07-20T01:14:35;1.45;;;1.13;;
71759;SDS011;59919;48.112;16.280;2023-07-20T01:17:08;1.77;;;1.30;;
71759;SDS011;59919;48.112;16.280;2023-07-20T01:19:42;1.65;;;1.38;;
71759;SDS011;59919;48.112;16.280;2023-07-20T01:28:02;1.40;;;1.30;;
71759;SDS011;59919;48.112;16.280;2023-07-20T01:31:39;1.92;;;1.23;;
71759;SDS011;59919;48.112;16.280;2023-07-20T01:34:01;1.77;;;1.30;;
71759;SDS011;59919;48.112;16.280;2023-07-20T01:36:37;1.63;;;1.52;;
71759;SDS011;59919;48.112;16.280;2023-07-20T01:39:12;1.60;;;1.25;;
71759;SDS011;59919;48.112;16.280;2023-07-20T01:41:44;1.90;;;1.40;;
71759;SDS011;59919;48.112;16.280;2023-07-20T01:44:16;1.48;;;1.38;;
71759;SDS011;59919;48.112;16.280;2023-07-20T01:46:50;1.75;;;1.42;;
71759;SDS011;59919;48.112;16.280;2023-07-20T01:49:21;1.48;;;1.30;;
71759;SDS011;59919;48.112;16.280;2023-07-20T01:51:55;2.22;;;1.30;;
71759;SDS011;59919;48.112;16.280;2023-07-20T01:54:30;1.88;;;1.42;;
71759;SDS011;59919;48.112;16.280;2023-07-20T01:57:05;1.25;;;1.15;;
71759;SDS011;59919;48.112;16.280;2023-07-20T01:59:36;1.83;;;1.48;;
71759;SDS011;59919;48.112;16.280;2023-07-20T02:02:08;1.60;;;1.20;;
71759;SDS011;59919;48.112;16.280;2023-07-20T02:04:39;1.98;;;1.25;;
71759;SDS011;59919;48.112;16.280;2023-07-20T02:07:15;1.73;;;1.38;;
71759;SDS011;59919;48.112;16.280;2023-07-20T02:09:46;1.50;;;1.30;;
71759;SDS011;59919;48.112;16.280;2023-07-20T02:12:17;1.98;;;1.25;;
71759;SDS011;59919;48.112;16.280;2023-07-20T02:14:49;1.92;;;1.38;;
71759;SDS011;59919;48.112;16.280;2023-07-20T02:17:21;1.85;;;1.50;;
71759;SDS011;59919;48.112;16.280;2023-07-20T02:19:52;1.23;;;1.13;;
71759;SDS011;59919;48.112;16.280;2023-07-20T02:22:28;2.03;;;1.40;;
71759;SDS011;59919;48.112;16.280;2023-07-20T02:25:01;1.63;;;1.17;;
71759;SDS011;59919;48.112;16.280;2023-07-20T02:27:35;1.40;;;1.17;;
71759;SDS011;59919;48.112;16.280;2023-07-20T02:30:07;1.65;;;1.20;;
71759;SDS011;59919;48.112;16.280;2023-07-20T02:32:39;1.27;;;1.15;;
71759;SDS011;59919;48.112;16.280;2023-07-20T02:35:11;1.25;;;1.15;;
71759;SDS011;59919;48.112;16.280;2023-07-20T02:37:45;1.52;;;1.20;;
71759;SDS011;59919;48.112;16.280;2023-07-20T02:40:16;1.77;;;1.23;;
71759;SDS011;59919;48.112;16.280;2023-07-20T02:42:47;1.92;;;1.33;;
71759;SDS011;59919;48.112;16.280;2023-07-20T02:45:21;1.33;;;1.23;;
71759;SDS011;59919;48.112;16.280;2023-07-20T02:47:52;1.65;;;1.30;;
71759;SDS011;59919;48.112;16.280;2023-07-20T02:50:38;1.92;;;1.40;;
71759;SDS011;59919;48.112;16.280;2023-07-20T02:53:11;1.30;;;1.20;;
71759;SDS011;59919;48.112;16.280;2023-07-20T02:55:48;1.60;;;1.40;;
71759;SDS011;59919;48.112;16.280;2023-07-20T02:58:21;1.80;;;1.50;;
71759;SDS011;59919;48.112;16.280;2023-07-20T03:00:55;1.80;;;1.50;;
71759;SDS011;59919;48.112;16.280;2023-07-20T03:03:27;1.33;;;1.20;;
71759;SDS011;59919;48.112;16.280;2023-07-20T03:05:58;1.70;;;1.38;;
71759;SDS011;59919;48.112;16.280;2023-07-20T03:08:34;1.58;;;1.20;;
71759;SDS011;59919;48.112;16.280;2023-07-20T03:11:06;1.40;;;1.27;;
71759;SDS011;59919;48.112;16.280;2023-07-20T03:13:38;1.60;;;1.48;;
71759;SDS011;59919;48.112;16.280;2023-07-20T03:16:10;1.50;;;1.25;;
71759;SDS011;59919;48.112;16.280;2023-07-20T03:18:41;1.52;;;1.40;;
71759;SDS011;59919;48.112;16.280;2023-07-20T03:21:13;1.60;;;1.50;;
71759;SDS011;59919;48.112;16.280;2023-07-20T03:23:47;1.30;;;1.20;;
71759;SDS011;59919;48.112;16.280;2023-07-20T03:26:21;1.50;;;1.30;;
71759;SDS011;59919;48.112;16.280;2023-07-20T03:28:54;2.03;;;1.30;;
71759;SDS011;59919;48.112;16.280;2023-07-20T03:31:25;1.77;;;1.45;;
71759;SDS011;59919;48.112;16.280;2023-07-20T03:33:56;2.03;;;1.50;;
71759;SDS011;59919;48.112;16.280;2023-07-20T03:36:30;1.90;;;1.27;;
71759;SDS011;59919;48.112;16.280;2023-07-20T03:39:02;1.40;;;1.30;;
71759;SDS011;59919;48.112;16.280;2023-07-20T03:41:33;1.20;;;1.10;;
71759;SDS011;59919;48.112;16.280;2023-07-20T03:44:07;1.50;;;1.30;;
71759;SDS011;59919;48.112;16.280;2023-07-20T03:46:41;2.10;;;1.35;;
71759;SDS011;59919;48.112;16.280;2023-07-20T03:49:12;1.60;;;1.50;;
71759;SDS011;59919;48.112;16.280;2023-07-20T03:51:44;2.00;;;1.40;;
71759;SDS011;59919;48.112;16.280;2023-07-20T03:54:18;1.60;;;1.50;;
71759;SDS011;59919;48.112;16.280;2023-07-20T03:56:49;2.35;;;1.50;;
71759;SDS011;59919;48.112;16.280;2023-07-20T03:59:20;1.63;;;1.30;;
71759;SDS011;59919;48.112;16.280;2023-07-20T04:02:00;1.70;;;1.40;;
71759;SDS011;59919;48.112;16.280;2023-07-20T04:04:31;1.70;;;1.20;;
71759;SDS011;59919;48.112;16.280;2023-07-20T04:07:08;1.88;;;1.60;;
71759;SDS011;59919;48.112;16.280;2023-07-20T04:09:39;1.83;;;1.48;;
71759;SDS011;59919;48.112;16.280;2023-07-20T04:12:11;1.30;;;1.10;;
71759;SDS011;59919;48.112;16.280;2023-07-20T04:14:44;2.35;;;1.40;;
71759;SDS011;59919;48.112;16.280;2023-07-20T04:17:15;1.50;;;1.40;;
71759;SDS011;59919;48.112;16.280;2023-07-20T04:19:49;1.60;;;1.40;;
71759;SDS011;59919;48.112;16.280;2023-07-20T04:22:25;2.05;;;1.50;;
71759;SDS011;59919;48.112;16.280;2023-07-20T04:24:56;1.63;;;1.38;;
71759;SDS011;59919;48.112;16.280;2023-07-20T04:27:30;2.90;;;1.70;;
71759;SDS011;59919;48.112;16.280;2023-07-20T04:30:06;1.60;;;1.30;;
71759;SDS011;59919;48.112;16.280;2023-07-20T04:32:41;1.52;;;1.38;;
71759;SDS011;59919;48.112;16.280;2023-07-20T04:35:26;1.50;;;1.40;;
71759;SDS011;59919;48.112;16.280;2023-07-20T04:38:20;1.95;;;1.50;;
71759;SDS011;59919;48.112;16.280;2023-07-20T04:40:51;1.70;;;1.33;;
71759;SDS011;59919;48.112;16.280;2023-07-20T04:43:22;1.40;;;1.30;;
71759;SDS011;59919;48.112;16.280;2023-07-20T04:45:54;1.60;;;1.40;;
71759;SDS011;59919;48.112;16.280;2023-07-20T04:51:05;1.50;;;1.40;;
71759;SDS011;59919;48.112;16.280;2023-07-20T04:53:36;1.50;;;1.30;;
71759;SDS011;59919;48.112;16.280;2023-07-20T04:56:07;1.85;;;1.40;;
71759;SDS011;59919;48.112;16.280;2023-07-20T04:58:39;1.30;;;1.20;;
71759;SDS011;59919;48.112;16.280;2023-07-20T05:01:10;2.35;;;1.40;;
71759;SDS011;59919;48.112;16.280;2023-07-20T05:03:43;2.03;;;1.63;;
71759;SDS011;59919;48.112;16.280;2023-07-20T05:06:17;1.65;;;1.40;;
71759;SDS011;59919;48.112;16.280;2023-07-20T05:08:49;1.35;;;1.25;;
71759;SDS011;59919;48.112;16.280;2023-07-20T05:13:57;1.70;;;1.30;;
71759;SDS011;59919;48.112;16.280;2023-07-20T05:16:28;1.58;;;1.15;;
71759;SDS011;59919;48.112;16.280;2023-07-20T05:18:59;1.75;;;1.48;;
71759;SDS011;59919;48.112;16.280;2023-07-20T05:21:31;1.42;;;1.33;;
71759;SDS011;59919;48.112;16.280;2023-07-20T05:24:06;1.83;;;1.23;;
71759;SDS011;59919;48.112;16.280;2023-07-20T05:26:38;1.52;;;1.40;;
71759;SDS011;59919;48.112;16.280;2023-07-20T05:29:09;1.50;;;1.40;;
71759;SDS011;59919;48.112;16.280;2023-07-20T05:31:40;1.77;;;1.42;;
71759;SDS011;59919;48.112;16.280;2023-07-20T05:34:12;1.70;;;1.30;;
71759;SDS011;59919;48.112;16.280;2023-07-20T05:39:41;1.70;;;1.40;;
71759;SDS011;59919;48.112;16.280;2023-07-20T05:42:12;1.60;;;1.30;;
71759;SDS011;59919;48.112;16.280;2023-07-20T05:44:43;1.40;;;1.30;;
71759;SDS011;59919;48.112;16.280;2023-07-20T05:47:14;1.70;;;1.42;;
71759;SDS011;59919;48.112;16.280;2023-07-20T05:49:46;1.50;;;1.40;;
71759;SDS011;59919;48.112;16.280;2023-07-20T05:52:18;1.77;;;1.40;;
71759;SDS011;59919;48.112;16.280;2023-07-20T05:54:49;2.17;;;1.52;;
71759;SDS011;59919;48.112;16.280;2023-07-20T05:57:22;1.52;;;1.42;;
71759;SDS011;59919;48.112;16.280;2023-07-20T05:59:57;1.63;;;1.20;;
71759;SDS011;59919;48.112;16.280;2023-07-20T06:02:28;2.13;;;1.38;;
71759;SDS011;59919;48.112;16.280;2023-07-20T06:05:03;2.00;;;1.58;;
71759;SDS011;59919;48.112;16.280;2023-07-20T06:07:35;1.80;;;1.52;;
71759;SDS011;59919;48.112;16.280;2023-07-20T06:10:09;1.83;;;1.40;;
71759;SDS011;59919;48.112;16.280;2023-07-20T06:12:40;1.38;;;1.23;;
71759;SDS011;59919;48.112;16.280;2023-07-20T06:15:26;1.52;;;1.42;;
71759;SDS011;59919;48.112;16.280;2023-07-20T06:17:59;2.00;;;1.40;;
71759;SDS011;59919;48.112;16.280;2023-07-20T06:20:36;2.05;;;1.48;;
71759;SDS011;59919;48.112;16.280;2023-07-20T06:23:11;1.50;;;1.40;;
71759;SDS011;59919;48.112;16.280;2023-07-20T06:25:43;1.60;;;1.33;;
71759;SDS011;59919;48.112;16.280;2023-07-20T06:28:14;2.10;;;1.30;;
71759;SDS011;59919;48.112;16.280;2023-07-20T06:30:48;1.77;;;1.52;;
71759;SDS011;59919;48.112;16.280;2023-07-20T06:33:29;1.73;;;1.33;;
71759;SDS011;59919;48.112;16.280;2023-07-20T06:36:02;1.92;;;1.35;;
71759;SDS011;59919;48.112;16.280;2023-07-20T06:38:34;1.38;;;1.27;;
71759;SDS011;59919;48.112;16.280;2023-07-20T06:41:05;1.50;;;1.35;;
71759;SDS011;59919;48.112;16.280;2023-07-20T06:43:39;1.80;;;1.48;;
71759;SDS011;59919;48.112;16.280;2023-07-20T06:46:10;1.73;;;1.40;;
71759;SDS011;59919;48.112;16.280;2023-07-20T06:48:41;1.60;;;1.30;;
71759;SDS011;59919;48.112;16.280;2023-07-20T06:51:12;1.90;;;1.30;;
71759;SDS011;59919;48.112;16.280;2023-07-20T06:53:43;1.33;;;1.20;;
71759;SDS011;59919;48.112;16.280;2023-07-20T06:56:15;2.50;;;1.33;;
71759;SDS011;59919;48.112;16.280;2023-07-20T06:58:46;1.83;;;1.42;;
71759;SDS011;59919;48.112;16.280;2023-07-20T07:01:17;1.90;;;1.48;;
71759;SDS011;59919;48.112;16.280;2023-07-20T07:03:49;2.58;;;1.50;;
71759;SDS011;59919;48.112;16.280;2023-07-20T07:06:23;2.40;;;1.30;;
71759;SDS011;59919;48.112;16.280;2023-07-20T07:08:58;2.20;;;1.30;;
71759;SDS011;59919;48.112;16.280;2023-07-20T07:11:32;1.73;;;1.42;;
71759;SDS011;59919;48.112;16.280;2023-07-20T07:14:05;2.05;;;1.60;;
71759;SDS011;59919;48.112;16.280;2023-07-20T07:16:40;1.85;;;1.52;;
71759;SDS011;59919;48.112;16.280;2023-07-20T07:19:11;1.83;;;1.33;;
71759;SDS011;59919;48.112;16.280;2023-07-20T07:21:44;1.70;;;1.23;;
71759;SDS011;59919;48.112;16.280;2023-07-20T07:24:15;1.90;;;1.50;;
71759;SDS011;59919;48.112;16.280;2023-07-20T07:26:47;1.98;;;1.50;;
71759;SDS011;59919;48.112;16.280;2023-07-20T07:29:24;2.00;;;1.20;;
71759;SDS011;59919;48.112;16.280;2023-07-20T07:31:56;2.22;;;1.40;;
71759;SDS011;59919;48.112;16.280;2023-07-20T07:34:29;1.33;;;1.23;;
71759;SDS011;59919;48.112;16.280;2023-07-20T07:37:01;1.25;;;1.10;;
71759;SDS011;59919;48.112;16.280;2023-07-20T07:39:32;1.33;;;1.23;;
71759;SDS011;59919;48.112;16.280;2023-07-20T07:42:03;2.65;;;1.40;;
71759;SDS011;59919;48.112;16.280;2023-07-20T07:44:35;1.58;;;1.25;;
71759;SDS011;59919;48.112;16.280;2023-07-20T07:47:06;1.42;;;1.30;;
71759;SDS011;59919;48.112;16.280;2023-07-20T07:49:38;1.40;;;1.27;;
71759;SDS011;59919;48.112;16.280;2023-07-20T07:52:09;1.42;;;1.33;;
71759;SDS011;59919;48.112;16.280;2023-07-20T07:54:40;1.40;;;1.20;;
71759;SDS011;59919;48.112;16.280;2023-07-20T07:57:17;1.45;;;1.10;;
71759;SDS011;59919;48.112;16.280;2023-07-20T07:59:48;1.58;;;1.23;;
71759;SDS011;59919;48.112;16.280;2023-07-20T08:02:21;1.65;;;1.30;;
71759;SDS011;59919;48.112;16.280;2023-07-20T08:04:52;1.75;;;1.30;;
71759;SDS011;59919;48.112;16.280;2023-07-20T08:07:28;1.75;;;1.30;;
71759;SDS011;59919;48.112;16.280;2023-07-20T08:09:59;1.50;;;1.35;;
71759;SDS011;59919;48.112;16.280;2023-07-20T08:12:35;2.10;;;1.57;;
71759;SDS011;59919;48.112;16.280;2023-07-20T08:15:06;2.10;;;1.35;;
71759;SDS011;59919;48.112;16.280;2023-07-20T08:17:40;1.90;;;1.45;;
71759;SDS011;59919;48.112;16.280;2023-07-20T08:20:14;1.30;;;1.20;;
71759;SDS011;59919;48.112;16.280;2023-07-20T08:22:47;1.58;;;1.30;;
71759;SDS011;59919;48.112;16.280;2023-07-20T08:25:24;1.50;;;1.20;;
71759;SDS011;59919;48.112;16.280;2023-07-20T08:27:57;1.80;;;1.10;;
71759;SDS011;59919;48.112;16.280;2023-07-20T08:30:38;1.75;;;1.40;;
71759;SDS011;59919;48.112;16.280;2023-07-20T08:33:14;1.60;;;1.50;;
71759;SDS011;59919;48.112;16.280;2023-07-20T08:35:49;1.85;;;1.45;;
71759;SDS011;59919;48.112;16.280;2023-07-20T08:38:20;1.48;;;1.27;;
71759;SDS011;59919;48.112;16.280;2023-07-20T08:40:51;1.80;;;1.27;;
71759;SDS011;59919;48.112;16.280;2023-07-20T08:43:24;1.40;;;1.10;;
71759;SDS011;59919;48.112;16.280;2023-07-20T08:45:56;1.20;;;1.10;;
71759;SDS011;59919;48.112;16.280;2023-07-20T08:48:33;1.45;;;1.33;;
71759;SDS011;59919;48.112;16.280;2023-07-20T08:51:07;1.80;;;1.35;;
71759;SDS011;59919;48.112;16.280;2023-07-20T08:53:38;1.60;;;1.30;;
71759;SDS011;59919;48.112;16.280;2023-07-20T08:56:10;1.50;;;1.20;;
71759;SDS011;59919;48.112;16.280;2023-07-20T08:58:44;1.50;;;1.30;;
71759;SDS011;59919;48.112;16.280;2023-07-20T09:01:17;1.30;;;1.20;;
71759;SDS011;59919;48.112;16.280;2023-07-20T09:03:49;1.88;;;1.30;;
71759;SDS011;59919;48.112;16.280;2023-07-20T09:06:23;1.50;;;1.40;;
71759;SDS011;59919;48.112;16.280;2023-07-20T09:08:59;1.60;;;1.30;;
71759;SDS011;59919;48.112;16.280;2023-07-20T09:11:31;1.90;;;1.40;;
71759;SDS011;59919;48.112;16.280;2023-07-20T09:14:07;2.40;;;1.48;;
71759;SDS011;59919;48.112;16.280;2023-07-20T09:16:58;1.17;;;1.08;;
71759;SDS011;59919;48.112;16.280;2023-07-20T09:19:29;1.42;;;1.23;;
71759;SDS011;59919;48.112;16.280;2023-07-20T09:22:00;1.60;;;1.27;;
71759;SDS011;59919;48.112;16.280;2023-07-20T09:24:31;1.42;;;1.30;;
71759;SDS011;59919;48.112;16.280;2023-07-20T09:27:03;1.40;;;1.30;;
71759;SDS011;59919;48.112;16.280;2023-07-20T09:29:34;1.67;;;1.52;;
71759;SDS011;59919;48.112;16.280;2023-07-20T09:32:20;1.45;;;1.25;;
71759;SDS011;59919;48.112;16.280;2023-07-20T09:34:57;2.08;;;1.35;;
71759;SDS011;59919;48.112;16.280;2023-07-20T09:37:30;1.65;;;1.30;;
71759;SDS011;59919;48.112;16.280;2023-07-20T09:40:04;1.45;;;1.08;;
71759;SDS011;59919;48.112;16.280;2023-07-20T09:42:38;1.80;;;1.40;;
71759;SDS011;59919;48.112;16.280;2023-07-20T09:45:10;1.45;;;1.35;;
71759;SDS011;59919;48.112;16.280;2023-07-20T09:47:42;2.00;;;1.27;;
71759;SDS011;59919;48.112;16.280;2023-07-20T09:50:13;1.55;;;1.20;;
71759;SDS011;59919;48.112;16.280;2023-07-20T09:52:47;1.63;;;1.25;;
71759;SDS011;59919;48.112;16.280;2023-07-20T09:55:18;1.30;;;1.17;;
71759;SDS011;59919;48.112;16.280;2023-07-20T09:57:52;1.10;;;1.00;;
71759;SDS011;59919;48.112;16.280;2023-07-20T10:00:32;1.58;;;1.40;;
71759;SDS011;59919;48.112;16.280;2023-07-20T10:03:06;1.20;;;0.95;;
71759;SDS011;59919;48.112;16.280;2023-07-20T10:05:43;2.00;;;1.20;;
71759;SDS011;59919;48.112;16.280;2023-07-20T10:08:16;1.10;;;1.00;;
71759;SDS011;59919;48.112;16.280;2023-07-20T10:10:51;1.27;;;1.17;;
71759;SDS011;59919;48.112;16.280;2023-07-20T10:13:26;1.15;;;1.05;;
71759;SDS011;59919;48.112;16.280;2023-07-20T10:16:07;1.75;;;1.30;;
71759;SDS011;59919;48.112;16.280;2023-07-20T10:18:59;1.20;;;1.10;;
71759;SDS011;59919;48.112;16.280;2023-07-20T10:21:39;1.45;;;1.20;;
71759;SDS011;59919;48.112;16.280;2023-07-20T10:24:18;1.45;;;1.05;;
71759;SDS011;59919;48.112;16.280;2023-07-20T10:26:52;1.42;;;1.20;;
71759;SDS011;59919;48.112;16.280;2023-07-20T10:29:26;1.75;;;1.35;;
71759;SDS011;59919;48.112;16.280;2023-07-20T10:32:01;1.80;;;1.10;;
71759;SDS011;59919;48.112;16.280;2023-07-20T10:34:36;1.33;;;1.10;;
71759;SDS011;59919;48.112;16.280;2023-07-20T10:37:20;1.75;;;1.10;;
71759;SDS011;59919;48.112;16.280;2023-07-20T10:43:06;1.10;;;1.00;;
71759;SDS011;59919;48.112;16.280;2023-07-20T10:45:42;1.20;;;1.10;;
71759;SDS011;59919;48.112;16.280;2023-07-20T10:48:22;1.10;;;0.98;;
71759;SDS011;59919;48.112;16.280;2023-07-20T10:51:13;1.17;;;0.90;;
71759;SDS011;59919;48.112;16.280;2023-07-20T10:53:44;1.27;;;1.10;;
71759;SDS011;59919;48.112;16.280;2023-07-20T10:56:22;1.45;;;1.08;;
71759;SDS011;59919;48.112;16.280;2023-07-20T10:58:57;1.20;;;1.10;;
71759;SDS011;59919;48.112;16.280;2023-07-20T11:01:36;1.40;;;1.15;;
71759;SDS011;59919;48.112;16.280;2023-07-20T11:04:10;1.20;;;1.00;;
71759;SDS011;59919;48.112;16.280;2023-07-20T11:06:42;1.30;;;1.00;;
71759;SDS011;59919;48.112;16.280;2023-07-20T11:09:16;1.25;;;1.00;;
71759;SDS011;59919;48.112;16.280;2023-07-20T11:11:48;1.50;;;1.23;;
71759;SDS011;59919;48.112;16.280;2023-07-20T11:14:28;1.05;;;0.95;;
71759;SDS011;59919;48.112;16.280;2023-07-20T11:17:10;1.40;;;1.13;;
71759;SDS011;59919;48.112;16.280;2023-07-20T11:19:47;1.30;;;1.10;;
71759;SDS011;59919;48.112;16.280;2023-07-20T11:22:19;1.25;;;0.90;;
71759;SDS011;59919;48.112;16.280;2023-07-20T11:24:54;1.40;;;0.90;;
71759;SDS011;59919;48.112;16.280;2023-07-20T11:27:28;1.35;;;1.00;;
71759;SDS011;59919;48.112;16.280;2023-07-20T11:29:59;1.20;;;0.98;;
71759;SDS011;59919;48.112;16.280;2023-07-20T11:32:30;1.35;;;1.25;;
71759;SDS011;59919;48.112;16.280;2023-07-20T11:35:26;1.10;;;1.00;;
71759;SDS011;59919;48.112;16.280;2023-07-20T11:38:01;1.13;;;1.00;;
71759;SDS011;59919;48.112;16.280;2023-07-20T11:40:32;1.13;;;1.00;;
71759;SDS011;59919;48.112;16.280;2023-07-20T11:43:03;1.25;;;1.10;;
71759;SDS011;59919;48.112;16.280;2023-07-20T11:45:37;2.22;;;1.05;;
71759;SDS011;59919;48.112;16.280;2023-07-20T11:48:14;1.10;;;1.00;;
71759;SDS011;59919;48.112;16.280;2023-07-20T11:50:46;1.13;;;1.02;;
71759;SDS011;59919;48.112;16.280;2023-07-20T11:53:20;1.40;;;1.10;;
71759;SDS011;59919;48.112;16.280;2023-07-20T11:55:51;1.42;;;0.95;;
71759;SDS011;59919;48.112;16.280;2023-07-20T11:58:27;0.70;;;0.70;;
71759;SDS011;59919;48.112;16.280;2023-07-20T12:00:59;1.35;;;0.90;;
71759;SDS011;59919;48.112;16.280;2023-07-20T12:03:34;1.10;;;1.00;;
71759;SDS011;59919;48.112;16.280;2023-07-20T12:06:09;1.00;;;0.90;;
71759;SDS011;59919;48.112;16.280;2023-07-20T12:08:43;1.25;;;1.02;;
71759;SDS011;59919;48.112;16.280;2023-07-20T12:11:30;1.05;;;0.95;;
71759;SDS011;59919;48.112;16.280;2023-07-20T12:14:11;1.05;;;0.90;;
71759;SDS011;59919;48.112;16.280;2023-07-20T12:16:51;1.00;;;0.90;;
71759;SDS011;59919;48.112;16.280;2023-07-20T12:19:28;0.85;;;0.77;;
71759;SDS011;59919;48.112;16.280;2023-07-20T12:21:59;0.85;;;0.80;;
71759;SDS011;59919;48.112;16.280;2023-07-20T12:24:33;1.83;;;1.00;;
71759;SDS011;59919;48.112;16.280;2023-07-20T12:27:05;1.10;;;1.00;;
71759;SDS011;59919;48.112;16.280;2023-07-20T12:29:36;1.13;;;0.90;;
71759;SDS011;59919;48.112;16.280;2023-07-20T12:32:08;0.82;;;0.82;;
71759;SDS011;59919;48.112;16.280;2023-07-20T12:34:39;1.10;;;1.00;;
71759;SDS011;59919;48.112;16.280;2023-07-20T12:37:10;1.35;;;0.82;;
71759;SDS011;59919;48.112;16.280;2023-07-20T12:39:41;1.08;;;0.90;;
71759;SDS011;59919;48.112;16.280;2023-07-20T12:42:17;1.30;;;0.80;;
71759;SDS011;59919;48.112;16.280;2023-07-20T12:44:49;1.10;;;1.00;;
71759;SDS011;59919;48.112;16.280;2023-07-20T12:47:21;1.15;;;0.98;;
71759;SDS011;59919;48.112;16.280;2023-07-20T12:49:57;1.00;;;0.90;;
71759;SDS011;59919;48.112;16.280;2023-07-20T12:52:30;1.00;;;0.90;;
71759;SDS011;59919;48.112;16.280;2023-07-20T12:55:02;1.38;;;0.80;;
71759;SDS011;59919;48.112;16.280;2023-07-20T12:57:37;1.23;;;1.00;;
71759;SDS011;59919;48.112;16.280;2023-07-20T13:00:14;0.85;;;0.82;;
71759;SDS011;59919;48.112;16.280;2023-07-20T13:02:47;1.10;;;0.90;;
71759;SDS011;59919;48.112;16.280;2023-07-20T13:05:18;0.70;;;0.70;;
71759;SDS011;59919;48.112;16.280;2023-07-20T13:07:51;1.00;;;0.90;;
71759;SDS011;59919;48.112;16.280;2023-07-20T13:10:25;1.20;;;0.90;;
71759;SDS011;59919;48.112;16.280;2023-07-20T13:12:59;1.92;;;0.93;;
71759;SDS011;59919;48.112;16.280;2023-07-20T13:15:32;1.45;;;0.90;;
71759;SDS011;59919;48.112;16.280;2023-07-20T13:18:11;1.98;;;0.90;;
71759;SDS011;59919;48.112;16.280;2023-07-20T13:20:45;0.98;;;0.88;;
71759;SDS011;59919;48.112;16.280;2023-07-20T13:23:16;0.82;;;0.75;;
71759;SDS011;59919;48.112;16.280;2023-07-20T13:25:47;1.55;;;0.80;;
71759;SDS011;59919;48.112;16.280;2023-07-20T13:28:20;0.93;;;0.70;;
71759;SDS011;59919;48.112;16.280;2023-07-20T13:30:54;1.25;;;0.70;;
71759;SDS011;59919;48.112;16.280;2023-07-20T13:33:28;1.00;;;0.88;;
71759;SDS011;59919;48.112;16.280;2023-07-20T13:35:59;0.70;;;0.70;;
71759;SDS011;59919;48.112;16.280;2023-07-20T13:38:36;0.77;;;0.70;;
71759;SDS011;59919;48.112;16.280;2023-07-20T13:41:12;1.02;;;0.90;;
71759;SDS011;59919;48.112;16.280;2023-07-20T13:43:49;1.00;;;0.90;;
71759;SDS011;59919;48.112;16.280;2023-07-20T13:46:20;1.40;;;0.90;;
71759;SDS011;59919;48.112;16.280;2023-07-20T13:48:52;0.98;;;0.85;;
71759;SDS011;59919;48.112;16.280;2023-07-20T13:51:23;1.25;;;0.95;;
71759;SDS011;59919;48.112;16.280;2023-07-20T13:53:56;0.77;;;0.77;;
71759;SDS011;59919;48.112;16.280;2023-07-20T13:56:29;0.82;;;0.80;;
71759;SDS011;59919;48.112;16.280;2023-07-20T13:59:00;4.13;;;1.35;;
71759;SDS011;59919;48.112;16.280;2023-07-20T14:01:31;0.90;;;0.80;;
71759;SDS011;59919;48.112;16.280;2023-07-20T14:04:11;1.05;;;0.75;;
71759;SDS011;59919;48.112;16.280;2023-07-20T14:06:42;0.88;;;0.80;;
71759;SDS011;59919;48.112;16.280;2023-07-20T14:09:18;1.10;;;0.80;;
71759;SDS011;59919;48.112;16.280;2023-07-20T14:11:50;0.70;;;0.70;;
71759;SDS011;59919;48.112;16.280;2023-07-20T14:14:21;0.82;;;0.80;;
71759;SDS011;59919;48.112;16.280;2023-07-20T14:16:52;0.82;;;0.70;;
71759;SDS011;59919;48.112;16.280;2023-07-20T14:19:23;0.77;;;0.68;;
71759;SDS011;59919;48.112;16.280;2023-07-20T14:21:54;1.17;;;0.90;;
71759;SDS011;59919;48.112;16.280;2023-07-20T14:24:26;0.68;;;0.60;;
71759;SDS011;59919;48.112;16.280;2023-07-20T14:26:57;0.60;;;0.60;;
71759;SDS011;59919;48.112;16.280;2023-07-20T14:29:34;0.80;;;0.73;;
71759;SDS011;59919;48.112;16.280;2023-07-20T14:32:07;0.77;;;0.68;;
71759;SDS011;59919;48.112;16.280;2023-07-20T14:34:40;0.60;;;0.60;;
71759;SDS011;59919;48.112;16.280;2023-07-20T14:37:11;0.98;;;0.70;;
71759;SDS011;59919;48.112;16.280;2023-07-20T14:39:43;1.10;;;0.88;;
71759;SDS011;59919;48.112;16.280;2023-07-20T14:42:18;0.63;;;0.63;;
71759;SDS011;59919;48.112;16.280;2023-07-20T14:44:49;1.08;;;0.75;;
71759;SDS011;59919;48.112;16.280;2023-07-20T14:47:20;1.05;;;0.90;;
71759;SDS011;59919;48.112;16.280;2023-07-20T14:49:52;1.83;;;0.90;;
71759;SDS011;59919;48.112;16.280;2023-07-20T14:52:26;1.45;;;0.90;;
71759;SDS011;59919;48.112;16.280;2023-07-20T14:55:01;0.90;;;0.85;;
71759;SDS011;59919;48.112;16.280;2023-07-20T14:57:32;0.98;;;0.80;;
71759;SDS011;59919;48.112;16.280;2023-07-20T15:00:06;0.88;;;0.80;;
71759;SDS011;59919;48.112;16.280;2023-07-20T15:02:40;0.90;;;0.80;;
71759;SDS011;59919;48.112;16.280;2023-07-20T15:05:23;0.80;;;0.63;;
71759;SDS011;59919;48.112;16.280;2023-07-20T15:07:55;1.02;;;0.70;;
71759;SDS011;59919;48.112;16.280;2023-07-20T15:10:28;1.63;;;0.70;;
71759;SDS011;59919;48.112;16.280;2023-07-20T15:13:03;0.80;;;0.77;;
71759;SDS011;59919;48.112;16.280;2023-07-20T15:15:39;1.77;;;0.82;;
71759;SDS011;59919;48.112;16.280;2023-07-20T15:18:10;0.98;;;0.85;;
71759;SDS011;59919;48.112;16.280;2023-07-20T15:20:46;1.35;;;0.80;;
71759;SDS011;59919;48.112;16.280;2023-07-20T15:23:24;0.95;;;0.80;;
71759;SDS011;59919;48.112;16.280;2023-07-20T15:25:55;1.38;;;0.70;;
71759;SDS011;59919;48.112;16.280;2023-07-20T15:28:26;1.15;;;0.80;;
71759;SDS011;59919;48.112;16.280;2023-07-20T15:31:00;0.82;;;0.60;;
71759;SDS011;59919;48.112;16.280;2023-07-20T15:33:32;1.10;;;0.80;;
71759;SDS011;59919;48.112;16.280;2023-07-20T15:36:03;1.13;;;0.77;;